createdAt,value
2018-04-10T00:01:25.292Z,14.36
2018-04-10T00:04:48.129Z,14.28
2018-04-10T00:08:10.983Z,14.21
2018-04-10T00:11:33.857Z,14.07
2018-04-10T00:14:57.469Z,14.17
2018-04-10T00:18:20.324Z,14.17
2018-04-10T00:21:43.165Z,14.03
2018-04-10T00:25:06.012Z,14.28
2018-04-10T00:28:28.862Z,14.20
2018-04-10T00:31:51.715Z,14.22
2018-04-10T00:35:14.567Z,14.26
2018-04-10T00:38:37.400Z,14.28
2018-04-10T00:42:00.259Z,14.31
2018-04-10T00:45:23.098Z,14.29
2018-04-10T00:48:45.950Z,14.20
2018-04-10T00:52:08.832Z,14.15
2018-04-10T00:55:32.446Z,14.02
2018-04-10T00:58:55.290Z,13.92
2018-04-10T01:02:18.154Z,13.97
2018-04-10T01:05:40.980Z,14.01
2018-04-10T01:09:03.976Z,14.13
2018-04-10T01:12:26.824Z,13.87
2018-04-10T01:15:49.686Z,14.16
2018-04-10T01:19:12.536Z,13.80
2018-04-10T01:22:35.397Z,13.83
2018-04-10T01:25:58.258Z,13.76
2018-04-10T01:29:21.139Z,13.67
2018-04-10T01:32:44.014Z,13.54
2018-04-10T01:36:06.919Z,13.59
2018-04-10T01:39:29.745Z,13.72
2018-04-10T01:42:52.610Z,13.64
2018-04-10T01:46:15.460Z,13.39
2018-04-10T01:49:38.300Z,13.47
2018-04-10T01:53:01.156Z,13.52
2018-04-10T01:56:24.006Z,13.38
2018-04-10T01:59:46.873Z,13.12
2018-04-10T02:03:09.782Z,13.20
2018-04-10T02:06:32.624Z,13.11
2018-04-10T02:09:55.480Z,13.07
2018-04-10T02:13:18.332Z,12.88
2018-04-10T02:16:41.248Z,12.87
2018-04-10T02:20:04.130Z,13.03
2018-04-10T02:23:27.142Z,12.83
2018-04-10T02:26:50.003Z,12.77
2018-04-10T02:30:12.839Z,12.69
2018-04-10T02:33:35.697Z,12.68
2018-04-10T02:36:58.551Z,12.51
2018-04-10T02:40:21.389Z,12.48
2018-04-10T02:43:44.375Z,12.48
2018-04-10T02:47:07.263Z,12.14
2018-04-10T02:50:30.879Z,12.06
2018-04-10T02:53:53.721Z,12.20
2018-04-10T02:57:16.577Z,12.13
2018-04-10T03:00:39.443Z,12.11
2018-04-10T03:04:02.348Z,12.08
2018-04-10T03:07:25.262Z,12.13
2018-04-10T03:10:48.121Z,12.07
2018-04-10T03:14:11.033Z,12.08
2018-04-10T03:17:33.883Z,12.08
2018-04-10T03:20:56.776Z,11.83
2018-04-10T03:24:19.679Z,12.08
2018-04-10T03:27:43.284Z,11.99
2018-04-10T03:31:06.295Z,12.14
2018-04-10T03:34:29.146Z,12.08
2018-04-10T03:37:51.991Z,12.13
2018-04-10T03:41:14.837Z,12.22
2018-04-10T03:44:37.767Z,12.21
2018-04-10T03:48:00.593Z,12.19
2018-04-10T03:51:23.469Z,12.41
2018-04-10T03:54:46.383Z,12.48
2018-04-10T03:58:09.246Z,12.53
2018-04-10T04:01:32.902Z,12.57
2018-04-10T04:04:56.516Z,12.16
2018-04-10T04:08:19.392Z,12.27
2018-04-10T04:11:43.020Z,12.22
2018-04-10T04:15:05.872Z,12.25
2018-04-10T04:18:40.623Z,12.21
2018-04-10T04:22:15.409Z,12.27
2018-04-10T04:25:38.381Z,12.20
2018-04-10T04:29:01.307Z,11.98
2018-04-10T04:32:24.195Z,11.87
2018-04-10T04:35:47.866Z,12.03
2018-04-10T04:39:10.737Z,11.75
2018-04-10T04:42:33.599Z,11.61
2018-04-10T04:45:56.745Z,11.67
2018-04-10T04:49:20.584Z,11.60
2018-04-10T04:52:43.419Z,11.86
2018-04-10T04:56:06.278Z,11.63
2018-04-10T04:59:29.220Z,11.65
2018-04-10T05:02:52.837Z,11.68
2018-04-10T05:06:15.736Z,11.59
2018-04-10T05:09:39.563Z,11.70
2018-04-10T05:13:02.530Z,11.40
2018-04-10T05:16:26.306Z,11.66
2018-04-10T05:19:49.937Z,11.79
2018-04-10T05:23:12.776Z,11.79
2018-04-10T05:26:35.673Z,11.77
2018-04-10T05:29:58.633Z,11.73
2018-04-10T05:33:21.502Z,11.66
2018-04-10T05:36:45.113Z,11.71
2018-04-10T05:40:07.958Z,12.53
2018-04-10T05:43:30.813Z,12.36
2018-04-10T05:46:53.663Z,11.99
2018-04-10T05:50:16.519Z,12.06
2018-04-10T05:53:39.406Z,12.30
2018-04-10T05:57:02.270Z,12.33
2018-04-10T06:00:26.309Z,11.93
2018-04-10T06:03:49.915Z,12.16
2018-04-10T06:07:12.758Z,11.98
2018-04-10T06:10:35.597Z,12.07
2018-04-10T06:13:59.217Z,12.39
2018-04-10T06:17:22.127Z,12.45
2018-04-10T06:20:44.978Z,12.93
2018-04-10T06:24:07.821Z,12.53
2018-04-10T06:27:30.668Z,12.70
2018-04-10T06:30:53.539Z,12.65
2018-04-10T06:34:16.380Z,12.77
2018-04-10T06:37:39.207Z,12.66
2018-04-10T06:41:02.040Z,12.74
2018-04-10T06:44:24.878Z,12.92
2018-04-10T06:47:48.624Z,12.79
2018-04-10T06:51:11.488Z,13.24
2018-04-10T06:54:34.322Z,13.34
2018-04-10T06:57:57.165Z,13.42
2018-04-10T07:01:20.004Z,13.38
2018-04-10T07:04:42.875Z,13.45
2018-04-10T07:08:05.726Z,13.44
2018-04-10T07:11:28.563Z,13.62
2018-04-10T07:14:51.424Z,13.78
2018-04-10T07:18:14.251Z,13.75
2018-04-10T07:21:37.109Z,13.78
2018-04-10T07:24:59.938Z,13.81
2018-04-10T07:28:22.808Z,13.97
2018-04-10T07:31:45.643Z,14.26
2018-04-10T07:35:08.481Z,14.45
2018-04-10T07:38:31.317Z,14.51
2018-04-10T07:41:54.917Z,14.61
2018-04-10T07:45:17.802Z,14.77
2018-04-10T07:48:41.391Z,14.86
2018-04-10T07:52:04.211Z,15.10
2018-04-10T07:55:27.062Z,15.31
2018-04-10T07:58:49.937Z,15.26
2018-04-10T08:02:13.529Z,15.18
2018-04-10T08:05:36.400Z,15.26
2018-04-10T08:08:59.232Z,15.14
2018-04-10T08:12:22.108Z,15.30
2018-04-10T08:15:45.758Z,15.15
2018-04-10T08:19:09.370Z,15.19
2018-04-10T08:22:32.201Z,15.37
2018-04-10T08:25:55.046Z,15.24
2018-04-10T08:29:18.820Z,15.69
2018-04-10T08:32:42.487Z,15.53
2018-04-10T08:36:05.356Z,15.73
2018-04-10T08:39:28.217Z,15.91
2018-04-10T08:42:51.058Z,16.01
2018-04-10T08:46:13.926Z,15.92
2018-04-10T08:49:36.865Z,16.15
2018-04-10T08:53:00.482Z,16.48
2018-04-10T08:56:23.323Z,16.77
2018-04-10T08:59:46.238Z,16.58
2018-04-10T09:03:09.083Z,16.68
2018-04-10T09:06:31.939Z,16.96
2018-04-10T09:09:54.790Z,16.79
2018-04-10T09:13:17.632Z,16.74
2018-04-10T09:16:40.457Z,16.78
2018-04-10T09:20:03.310Z,16.97
2018-04-10T09:23:26.154Z,17.37
2018-04-10T09:26:49.757Z,17.49
2018-04-10T09:30:12.662Z,17.85
2018-04-10T09:33:35.517Z,17.86
2018-04-10T09:36:58.391Z,17.87
2018-04-10T09:40:21.246Z,18.04
2018-04-10T09:43:44.927Z,18.00
2018-04-10T09:47:07.871Z,18.03
2018-04-10T09:50:30.752Z,18.41
2018-04-10T09:53:54.340Z,18.45
2018-04-10T09:57:17.953Z,18.27
2018-04-10T10:00:41.751Z,18.49
2018-04-10T10:04:05.429Z,18.54
2018-04-10T10:07:28.342Z,18.84
2018-04-10T10:10:51.172Z,18.88
2018-04-10T10:14:14.788Z,18.32
2018-04-10T10:17:37.636Z,18.43
2018-04-10T10:21:00.632Z,18.87
2018-04-10T10:24:23.616Z,18.60
2018-04-10T10:27:46.471Z,18.78
2018-04-10T10:31:09.356Z,18.95
2018-04-10T10:34:32.987Z,18.97
2018-04-10T10:37:55.851Z,18.96
2018-04-10T10:41:19.462Z,19.09
2018-04-10T10:44:42.283Z,19.42
2018-04-10T10:48:05.934Z,19.11
2018-04-10T10:51:29.541Z,19.35
2018-04-10T10:54:52.400Z,19.41
2018-04-10T10:58:15.253Z,19.66
2018-04-10T11:01:38.080Z,19.73
2018-04-10T11:05:00.921Z,20.18
2018-04-10T11:08:23.747Z,19.80
2018-04-10T11:11:47.367Z,19.65
2018-04-10T11:15:10.245Z,19.56
2018-04-10T11:18:33.851Z,19.53
2018-04-10T11:21:56.673Z,20.40
2018-04-10T12:48:13.514Z,14.09
2018-04-10T12:51:37.616Z,14.20
2018-04-10T12:55:00.553Z,14.57
2018-04-10T12:58:23.549Z,15.15
2018-04-10T13:01:46.448Z,14.86
2018-04-10T13:05:09.311Z,14.82
2018-04-10T13:08:32.219Z,14.56
2018-04-10T13:11:55.083Z,14.38
2018-04-10T13:15:18.014Z,14.51
2018-04-10T13:18:40.920Z,14.73
2018-04-10T13:22:03.904Z,14.82
2018-04-10T13:25:26.779Z,15.11
2018-04-10T13:28:50.455Z,13.68
2018-04-10T13:32:21.251Z,13.81
2018-04-10T13:35:44.881Z,13.38
2018-04-10T13:39:07.790Z,13.28
2018-04-10T13:42:31.475Z,13.05
2018-04-10T13:45:54.362Z,13.92
2018-04-10T13:49:17.969Z,13.46
2018-04-10T13:52:40.814Z,13.44
2018-04-10T13:56:03.644Z,13.13
2018-04-10T13:59:26.479Z,13.05
2018-04-10T14:02:49.572Z,13.25
2018-04-10T14:06:12.539Z,12.83
2018-04-10T14:09:36.207Z,12.70
2018-04-10T14:12:59.125Z,13.04
2018-04-10T14:19:59.953Z,13.18
2018-04-10T14:23:22.769Z,12.31
2018-04-10T14:26:46.382Z,12.59
2018-04-10T14:30:09.249Z,12.37
2018-04-10T14:33:32.066Z,12.16
2018-04-10T14:36:54.964Z,11.79
2018-04-10T14:40:17.785Z,12.24
2018-04-10T14:43:40.657Z,12.46
2018-04-10T14:47:04.330Z,12.17
2018-04-10T14:50:27.166Z,11.93
2018-04-10T14:53:50.020Z,12.43
2018-04-10T14:57:12.838Z,11.82
2018-04-10T15:00:36.452Z,11.90
2018-04-10T15:03:59.314Z,11.97
2018-04-10T15:07:22.219Z,11.93
2018-04-10T15:10:45.036Z,11.74
2018-04-10T15:14:08.632Z,11.69
2018-04-10T15:17:31.477Z,12.09
2018-04-10T15:20:54.313Z,11.77
2018-04-10T15:24:17.163Z,11.20
2018-04-10T15:27:40.779Z,11.53
2018-04-10T15:31:03.601Z,11.78
2018-04-10T15:34:26.422Z,12.09
2018-04-10T15:37:50.027Z,12.06
2018-04-10T15:41:12.903Z,12.47
2018-04-10T15:44:35.735Z,12.26
2018-04-10T15:47:58.577Z,12.38
2018-04-10T15:51:21.421Z,12.59
2018-04-10T15:54:44.279Z,12.51
2018-04-10T15:58:07.108Z,12.25
2018-04-10T16:01:29.936Z,11.80
2018-04-10T16:04:53.547Z,12.96
2018-04-10T16:08:16.407Z,13.23
2018-04-10T16:11:39.386Z,13.28
2018-04-10T16:15:02.221Z,13.26
2018-04-10T16:18:25.069Z,13.29
2018-04-10T16:21:47.897Z,13.50
2018-04-10T16:25:11.520Z,14.08
2018-04-10T16:28:34.376Z,13.34
2018-04-10T16:31:57.210Z,13.27
2018-04-10T16:35:20.107Z,13.70
2018-04-10T16:38:42.945Z,13.84
2018-04-10T16:42:05.806Z,13.71
2018-04-10T16:45:28.662Z,13.43
2018-04-10T16:48:51.525Z,13.83
2018-04-10T16:52:14.420Z,13.49
2018-04-10T16:55:37.233Z,13.76
2018-04-10T16:59:00.847Z,13.79
2018-04-10T17:02:23.659Z,13.68
2018-04-10T17:05:47.290Z,13.47
2018-04-10T17:09:10.143Z,13.53
2018-04-10T17:12:33.157Z,13.19
2018-04-10T17:15:58.201Z,14.09
2018-04-10T17:19:21.097Z,13.83
2018-04-10T17:22:44.729Z,13.95
2018-04-10T17:26:07.576Z,14.35
2018-04-10T17:29:30.440Z,13.67
2018-04-10T17:32:54.091Z,13.68
2018-04-10T17:36:16.991Z,13.59
2018-04-10T17:39:39.829Z,12.88
2018-04-10T17:43:02.722Z,12.68
2018-04-10T17:46:26.743Z,12.66
2018-04-10T17:49:50.410Z,12.32
2018-04-10T17:53:13.318Z,12.09
2018-04-10T17:56:36.166Z,11.84
2018-04-10T17:59:59.081Z,11.98
2018-04-10T18:03:22.060Z,12.13
2018-04-10T18:06:45.818Z,11.80
2018-04-10T18:10:08.691Z,12.15
2018-04-10T18:13:31.603Z,11.80
2018-04-10T18:16:54.542Z,11.83
2018-04-10T18:20:18.282Z,12.01
2018-04-10T18:23:41.134Z,11.58
2018-04-10T18:27:04.011Z,11.49
2018-04-10T18:30:26.861Z,11.47
2018-04-10T18:33:49.759Z,11.47
2018-04-10T18:37:12.739Z,11.23
2018-04-10T18:40:40.867Z,11.36
2018-04-10T18:44:03.714Z,11.27
2018-04-10T18:47:26.629Z,11.21
2018-04-10T18:50:49.616Z,11.34
2018-04-10T18:54:12.709Z,11.29
2018-04-10T18:57:36.321Z,11.27
2018-04-10T19:00:59.179Z,10.77
2018-04-10T19:04:22.209Z,10.87
2018-04-10T19:07:45.916Z,11.06
2018-04-10T19:11:09.548Z,10.98
2018-04-10T19:14:32.589Z,10.85
2018-04-10T19:17:56.292Z,10.68
2018-04-10T19:21:20.000Z,10.39
2018-04-10T19:24:43.645Z,10.71
2018-04-10T19:28:08.301Z,10.86
2018-04-10T19:31:31.912Z,10.77
2018-04-10T19:34:54.807Z,10.65
2018-04-10T19:38:18.522Z,10.30
2018-04-10T19:41:42.200Z,10.51
2018-04-10T19:45:05.093Z,10.41
2018-04-10T19:48:28.738Z,10.28
2018-04-10T19:51:51.641Z,10.23
2018-04-10T19:55:14.468Z,10.31
2018-04-10T19:58:37.331Z,10.27
2018-04-10T20:02:00.166Z,10.30
2018-04-10T20:05:23.019Z,10.21
2018-04-10T20:08:45.873Z,10.24
2018-04-10T20:12:08.715Z,10.02
2018-04-10T20:15:31.575Z,9.93
2018-04-10T20:18:54.544Z,9.77
2018-04-10T20:22:17.387Z,9.83
2018-04-10T20:25:40.256Z,9.76
2018-04-10T20:29:03.090Z,9.75
2018-04-10T20:32:25.965Z,9.74
2018-04-10T20:35:48.805Z,9.56
2018-04-10T20:39:11.670Z,9.53
2018-04-10T20:42:34.632Z,9.69
2018-04-10T20:45:57.514Z,9.63
2018-04-10T20:49:20.412Z,9.62
2018-04-10T20:52:43.237Z,9.61
2018-04-10T20:56:06.121Z,9.69
2018-04-10T20:59:29.030Z,9.65
2018-04-10T21:02:51.937Z,9.60
2018-04-10T21:06:14.797Z,9.64
2018-04-10T21:09:37.652Z,9.81
2018-04-10T21:13:00.484Z,9.67
2018-04-10T21:16:23.337Z,9.64
2018-04-10T21:19:46.191Z,9.48
2018-04-10T21:23:09.053Z,9.35
2018-04-10T21:26:31.952Z,9.53
2018-04-10T21:29:54.797Z,9.42
2018-04-10T21:33:17.931Z,9.07
2018-04-10T21:36:42.649Z,8.97
2018-04-10T21:40:26.991Z,9.42
2018-04-10T21:43:49.863Z,9.49
2018-04-10T21:47:13.512Z,9.40
2018-04-10T21:50:37.235Z,9.21
2018-04-10T21:54:00.831Z,9.57
2018-04-10T21:57:23.920Z,9.29
2018-04-10T22:00:46.847Z,9.23
2018-04-10T22:04:09.695Z,9.24
2018-04-10T22:07:32.674Z,9.26
2018-04-10T22:10:55.668Z,9.10
2018-04-10T22:14:18.591Z,9.05
2018-04-10T22:17:41.428Z,9.10
2018-04-10T22:21:04.301Z,9.07
2018-04-10T22:24:27.247Z,9.14
2018-04-10T22:27:50.113Z,9.11
2018-04-10T22:31:13.019Z,9.05
2018-04-10T22:34:35.889Z,8.88
2018-04-10T22:37:59.517Z,8.67
2018-04-10T22:41:22.505Z,8.86
2018-04-10T22:44:45.463Z,8.88
2018-04-10T22:48:08.342Z,8.80
2018-04-10T22:51:31.188Z,8.82
2018-04-10T22:54:54.099Z,8.73
2018-04-10T22:58:17.136Z,8.74
2018-04-10T23:01:40.749Z,8.56
2018-04-10T23:05:03.599Z,8.51
2018-04-10T23:08:26.437Z,8.49
2018-04-10T23:11:49.301Z,8.51
2018-04-10T23:15:12.147Z,8.84
2018-04-10T23:18:35.011Z,8.89
2018-04-10T23:21:57.845Z,8.63
2018-04-10T23:25:20.705Z,8.45
2018-04-10T23:28:43.565Z,8.38
2018-04-10T23:32:06.430Z,8.16
2018-04-10T23:35:29.333Z,8.34
2018-04-10T23:38:53.279Z,8.37
2018-04-10T23:42:16.104Z,8.04
2018-04-10T23:45:38.966Z,8.15
2018-04-10T23:49:01.979Z,8.23
2018-04-10T23:52:25.630Z,8.19
2018-04-10T23:55:48.477Z,8.26
2018-04-10T23:59:11.333Z,8.08
